North Ilion, New York
Current Conditions -  °F | °C
As of 11:53 AM on Thursday 30 Oct 2014 (Local Time) from KRME Reporting Station
Overcast Overcast  
Wind Chill: 41°   Ceiling: 3800
Heat Index: 46°   Visibility: 10mi
Dew Point: 39°   Wind: 9mph
Humidity: 76%   Direction: 280°W
Pressure: 30.03"   Gusts: NA
Location:  43.0518°N, 75.1167°W
Report Text: KRME 301553Z 28008KT 10SM OVC038 08/04 A3003 RMK AO2 RAE1459 SLP170 P0000 T00780039
Loading
Personal Weather Stations






























Interactive Weather Map
Tropical Storm Tracking
New forecast layout! Learn more

10-Day Weather Forecast

Advertisements
Track Severe Weather on mobile